Time;durP1;ratioP1;P1;durP2;ratioP2;P2;SDS_P1;SDS_P2;PMS_P1;PMS_P2;Temp;Humidity;BMP_temperature;BMP_pressure;BME280_temperature;BME280_humidity;BME280_pressure;Samples;Min_cycle;Max_cycle;Signal;HPM_P1;HPM_P2
2022/03/22 00:01:21;;;;;;;47.80;19.80;;;8.00;99.90;;;;;;5030497;28;20177;-71
2022/03/22 00:03:47;;;;;;;57.63;21.97;;;8.20;99.90;;;;;;5030491;28;20186;-71
2022/03/22 00:06:13;;;;;;;54.17;22.13;;;8.00;99.90;;;;;;5030639;28;20185;-71
2022/03/22 00:08:39;;;;;;;47.97;20.73;;;8.00;99.90;;;;;;5030351;28;20197;-71
2022/03/22 00:11:04;;;;;;;51.63;23.20;;;8.10;99.90;;;;;;5030328;28;20173;-71
2022/03/22 00:13:30;;;;;;;56.93;22.10;;;8.00;99.90;;;;;;5029887;28;20202;-71
2022/03/22 00:15:56;;;;;;;52.57;21.73;;;8.10;99.90;;;;;;5030535;28;20518;-72
2022/03/22 00:18:23;;;;;;;46.03;21.37;;;8.10;99.90;;;;;;5030231;28;20232;-71
2022/03/22 00:20:49;;;;;;;44.43;21.23;;;8.10;99.90;;;;;;5030565;28;20185;-71
2022/03/22 00:23:16;;;;;;;45.33;20.90;;;8.20;99.90;;;;;;5030284;28;20210;-71
2022/03/22 00:25:41;;;;;;;50.43;21.87;;;8.20;99.90;;;;;;5030415;28;20177;-71
2022/03/22 00:28:07;;;;;;;47.57;21.40;;;8.10;99.90;;;;;;5030318;28;20174;-71
2022/03/22 00:30:35;;;;;;;49.83;21.87;;;8.10;99.90;;;;;;5030462;28;20702;-72
2022/03/22 00:33:03;;;;;;;47.53;22.07;;;8.10;99.90;;;;;;5030035;28;20180;-71
2022/03/22 00:35:36;;;;;;;47.57;22.03;;;7.90;99.90;;;;;;5030228;28;20178;-71
2022/03/22 00:38:06;;;;;;;54.67;21.57;;;7.80;99.90;;;;;;5030391;28;20183;-71
2022/03/22 00:40:31;;;;;;;56.07;21.70;;;7.90;99.90;;;;;;5030436;28;20260;-71
2022/03/22 00:42:58;;;;;;;48.77;22.73;;;7.80;99.90;;;;;;5030143;28;20621;-71
2022/03/22 00:45:27;;;;;;;55.07;22.77;;;7.90;99.90;;;;;;5030451;28;20205;-71
2022/03/22 00:47:55;;;;;;;51.60;23.33;;;7.90;99.90;;;;;;5029949;28;20170;-71
2022/03/22 00:50:24;;;;;;;54.03;22.93;;;7.80;99.90;;;;;;5030106;28;20679;-72
2022/03/22 00:52:50;;;;;;;49.30;23.03;;;7.80;99.90;;;;;;5029895;28;20169;-72
2022/03/22 00:55:16;;;;;;;49.37;21.80;;;7.90;99.90;;;;;;5030892;28;20176;-72
2022/03/22 00:57:43;;;;;;;51.30;22.67;;;7.70;99.90;;;;;;5033718;28;20190;-72
2022/03/22 01:00:12;;;;;;;55.27;21.80;;;7.40;99.90;;;;;;5033825;28;20195;-72
2022/03/22 01:02:43;;;;;;;52.30;21.73;;;7.30;99.90;;;;;;5033523;28;20179;-72
2022/03/22 01:05:14;;;;;;;52.57;22.30;;;7.50;99.90;;;;;;5033760;28;20245;-72
2022/03/22 01:07:45;;;;;;;47.30;21.40;;;7.60;99.90;;;;;;5033628;28;20182;-72
2022/03/22 01:10:12;;;;;;;46.53;20.83;;;7.70;99.90;;;;;;5033620;28;20747;-72
2022/03/22 01:12:39;;;;;;;54.27;21.50;;;7.60;99.90;;;;;;5034701;28;20183;-72
2022/03/22 01:15:11;;;;;;;49.70;22.13;;;7.70;99.90;;;;;;5033543;28;20206;-72
2022/03/22 01:17:37;;;;;;;52.77;22.13;;;7.40;99.90;;;;;;5033615;28;20259;-72
2022/03/22 01:20:06;;;;;;;50.60;21.83;;;7.30;99.90;;;;;;5033531;28;20194;-72
2022/03/22 01:22:32;;;;;;;52.93;23.17;;;7.20;99.90;;;;;;5033227;28;20709;-72
2022/03/22 01:24:59;;;;;;;50.83;22.87;;;7.00;99.90;;;;;;5033453;28;20261;-72
2022/03/22 01:27:26;;;;;;;51.87;22.63;;;7.10;99.90;;;;;;5033485;28;20193;-72
2022/03/22 01:29:52;;;;;;;55.97;21.40;;;7.30;99.90;;;;;;5033297;28;20203;-72
2022/03/22 01:32:18;;;;;;;50.77;22.03;;;7.40;99.90;;;;;;5033088;28;20174;-72
2022/03/22 01:34:43;;;;;;;52.03;22.00;;;7.40;99.90;;;;;;5033101;28;20232;-72
2022/03/22 01:37:10;;;;;;;52.67;22.27;;;7.30;99.90;;;;;;5033257;28;20211;-72
2022/03/22 01:39:36;;;;;;;47.63;22.10;;;7.30;99.90;;;;;;5032962;28;20249;-72
2022/03/22 01:42:03;;;;;;;48.87;22.70;;;7.20;99.90;;;;;;5032973;28;20214;-72
2022/03/22 01:44:29;;;;;;;56.60;22.70;;;7.20;99.90;;;;;;5033018;28;20211;-72
2022/03/22 01:47:03;;;;;;;56.80;23.30;;;7.10;99.90;;;;;;5032821;28;20262;-72
2022/03/22 01:49:29;;;;;;;56.93;22.87;;;7.00;99.90;;;;;;5032953;28;20261;-72
2022/03/22 01:51:56;;;;;;;52.03;23.00;;;7.00;99.90;;;;;;5032661;28;20584;-72
2022/03/22 01:54:22;;;;;;;50.70;22.30;;;7.20;99.90;;;;;;5032767;28;20213;-72
2022/03/22 01:56:49;;;;;;;56.90;21.50;;;7.00;99.90;;;;;;5032728;28;20181;-72
2022/03/22 01:59:15;;;;;;;54.70;22.83;;;7.00;99.90;;;;;;5032786;28;20196;-72
2022/03/22 02:07:16;;;;;;;50.13;22.37;;;7.00;99.90;;;;;;5032819;28;20704;-72
2022/03/22 02:09:42;;;;;;;59.57;22.97;;;7.00;99.90;;;;;;5032613;28;20634;-72
2022/03/22 02:12:09;;;;;;;53.03;22.67;;;6.90;99.90;;;;;;5032333;28;20266;-72
2022/03/22 02:14:35;;;;;;;57.97;23.47;;;6.80;99.90;;;;;;5032300;28;20197;-72
2022/03/22 02:17:09;;;;;;;50.00;22.83;;;6.90;99.90;;;;;;5032388;28;20181;-72
2022/03/22 02:19:38;;;;;;;49.63;21.23;;;6.80;99.90;;;;;;5032347;28;20192;-72
2022/03/22 02:22:08;;;;;;;46.87;21.07;;;6.90;99.90;;;;;;5032118;28;20640;-72
2022/03/22 02:24:35;;;;;;;48.43;22.50;;;6.80;99.90;;;;;;5032294;28;20181;-72
2022/03/22 02:27:00;;;;;;;51.70;23.27;;;6.80;99.90;;;;;;5032267;28;20178;-72
2022/03/22 02:29:26;;;;;;;52.20;22.50;;;6.80;99.90;;;;;;5032132;28;20575;-71
2022/03/22 02:31:53;;;;;;;50.63;21.20;;;6.80;99.90;;;;;;5033326;28;20184;-71
2022/03/22 02:34:19;;;;;;;47.57;21.83;;;6.80;99.90;;;;;;5032264;28;20212;-71
2022/03/22 02:36:45;;;;;;;43.63;20.87;;;6.80;99.90;;;;;;5032111;28;20175;-71
2022/03/22 02:39:12;;;;;;;53.30;21.93;;;6.80;99.90;;;;;;5032038;28;20190;-71
2022/03/22 02:41:38;;;;;;;46.73;21.33;;;6.80;99.90;;;;;;5031863;28;20170;-71
2022/03/22 02:44:04;;;;;;;51.97;22.37;;;6.90;99.90;;;;;;5031944;28;20226;-71
2022/03/22 02:46:30;;;;;;;61.90;22.80;;;6.90;99.90;;;;;;5031468;28;20181;-71
2022/03/22 02:48:56;;;;;;;52.97;22.27;;;6.80;99.90;;;;;;5031787;28;20697;-71
2022/03/22 02:51:21;;;;;;;48.60;21.00;;;6.70;99.90;;;;;;5031595;28;20178;-71
2022/03/22 02:53:47;;;;;;;43.93;21.13;;;6.70;99.90;;;;;;5031629;28;20215;-71
2022/03/22 02:56:13;;;;;;;54.07;21.03;;;6.60;99.90;;;;;;5031725;28;20168;-71
2022/03/22 02:58:39;;;;;;;46.77;21.23;;;6.60;99.90;;;;;;5031445;28;20236;-71
2022/03/22 03:01:05;;;;;;;48.30;22.90;;;6.80;99.90;;;;;;5031074;28;20649;-71
2022/03/22 03:03:33;;;;;;;53.03;21.20;;;6.70;99.90;;;;;;5031234;28;20185;-71
2022/03/22 03:05:59;;;;;;;52.87;23.13;;;6.70;99.90;;;;;;5031129;28;20182;-71
2022/03/22 03:08:26;;;;;;;52.93;21.30;;;6.60;99.90;;;;;;5031064;28;20204;-71
2022/03/22 03:10:54;;;;;;;56.10;23.17;;;6.50;99.90;;;;;;5031352;28;20181;-72
2022/03/22 03:13:20;;;;;;;49.07;21.53;;;6.30;99.90;;;;;;5031162;28;20201;-72
2022/03/22 03:15:46;;;;;;;50.00;22.50;;;6.40;99.90;;;;;;5031349;28;20175;-72
2022/03/22 03:18:13;;;;;;;48.10;21.43;;;6.50;99.90;;;;;;5031218;28;20204;-72
2022/03/22 03:20:39;;;;;;;48.77;20.63;;;6.50;99.90;;;;;;5031311;28;20175;-72
2022/03/22 03:23:05;;;;;;;48.47;21.90;;;6.50;99.90;;;;;;5031064;28;20201;-72
2022/03/22 03:25:30;;;;;;;50.33;21.27;;;6.60;99.90;;;;;;5031132;28;20203;-72
2022/03/22 03:27:56;;;;;;;54.37;22.80;;;6.60;99.90;;;;;;5031138;28;20167;-72
2022/03/22 03:30:22;;;;;;;52.60;21.23;;;6.50;99.90;;;;;;5031128;28;20231;-72
2022/03/22 03:32:47;;;;;;;49.97;21.17;;;6.30;99.90;;;;;;5030421;28;20255;-72
2022/03/22 03:35:13;;;;;;;48.40;21.23;;;6.30;99.90;;;;;;5030928;28;20205;-72
2022/03/22 03:37:43;;;;;;;42.80;20.70;;;6.30;99.90;;;;;;5032360;28;20204;-72
2022/03/22 03:40:09;;;;;;;48.73;21.00;;;6.30;99.90;;;;;;5030902;28;20209;-72
2022/03/22 03:42:41;;;;;;;46.13;21.20;;;6.30;99.90;;;;;;5030574;28;20175;-71
2022/03/22 03:47:56;;;;;;;48.87;21.87;;;6.30;99.90;;;;;;5032072;28;20203;-72
2022/03/22 03:50:22;;;;;;;51.20;21.23;;;6.20;99.90;;;;;;5030811;28;20184;-72
2022/03/22 03:52:47;;;;;;;46.70;20.40;;;6.20;99.90;;;;;;5030487;28;20268;-71
2022/03/22 03:55:13;;;;;;;43.07;20.37;;;6.20;99.90;;;;;;5030589;28;20303;-72
2022/03/22 03:57:39;;;;;;;56.90;19.77;;;6.20;99.90;;;;;;5030505;28;20202;-71
2022/03/22 04:00:07;;;;;;;47.33;20.27;;;6.20;99.90;;;;;;5030531;28;20592;-72
2022/03/22 04:02:33;;;;;;;47.17;19.80;;;6.20;99.90;;;;;;5030673;28;20240;-71
2022/03/22 04:04:59;;;;;;;47.00;20.33;;;6.20;99.90;;;;;;5030514;28;20179;-72
2022/03/22 04:07:26;;;;;;;46.47;21.13;;;6.20;99.90;;;;;;5029968;28;20179;-71
2022/03/22 04:09:54;;;;;;;44.10;19.43;;;6.10;99.90;;;;;;5030465;28;20195;-71
2022/03/22 04:12:22;;;;;;;46.67;19.20;;;6.20;99.90;;;;;;5031714;28;20193;-71
2022/03/22 04:14:51;;;;;;;50.10;21.43;;;6.10;99.90;;;;;;5030397;28;20213;-71
2022/03/22 04:17:17;;;;;;;47.97;19.83;;;6.10;99.90;;;;;;5030536;28;20173;-71
2022/03/22 04:19:43;;;;;;;47.57;20.50;;;6.00;99.90;;;;;;5030382;28;20653;-71
2022/03/22 04:22:08;;;;;;;44.70;20.63;;;6.00;99.90;;;;;;5030212;28;20202;-71
2022/03/22 04:24:35;;;;;;;48.00;20.00;;;6.00;99.90;;;;;;5030690;28;20262;-71
2022/03/22 04:32:43;;;;;;;44.77;19.20;;;5.90;99.90;;;;;;5013946;28;20190;-71
2022/03/22 04:35:14;;;;;;;45.83;21.03;;;5.80;99.90;;;;;;5034290;28;20209;-71
2022/03/22 04:37:40;;;;;;;46.47;20.07;;;5.80;99.90;;;;;;5034390;28;20201;-71
2022/03/22 04:40:07;;;;;;;49.23;20.87;;;5.80;99.90;;;;;;5034222;28;20194;-71
2022/03/22 04:42:33;;;;;;;49.60;21.13;;;5.80;99.90;;;;;;5034048;28;20170;-71
2022/03/22 04:44:59;;;;;;;48.00;20.97;;;5.80;99.90;;;;;;5055741;23;20217;-71
2022/03/22 04:47:26;;;;;;;46.93;20.47;;;5.70;99.90;;;;;;5052170;28;20691;-71
2022/03/22 04:49:52;;;;;;;54.87;20.60;;;5.60;99.90;;;;;;5053978;28;20200;-71
2022/03/22 04:57:46;;;;;;;48.80;19.97;;;5.60;99.90;;;;;;5055168;28;20237;-71
2022/03/22 05:00:12;;;;;;;44.27;19.50;;;5.70;99.90;;;;;;5053799;28;20198;-72
2022/03/22 05:02:38;;;;;;;43.73;19.73;;;5.60;99.90;;;;;;5053900;28;20696;-71
2022/03/22 05:05:04;;;;;;;50.67;20.63;;;5.70;99.90;;;;;;5053765;28;20177;-71
2022/03/22 05:07:31;;;;;;;50.70;20.43;;;5.60;99.90;;;;;;5053873;28;20209;-71
2022/03/22 05:09:56;;;;;;;51.73;21.20;;;5.60;99.90;;;;;;5053544;28;20193;-72
2022/03/22 05:12:22;;;;;;;46.63;20.17;;;5.60;99.90;;;;;;5053450;28;20181;-71
2022/03/22 05:14:50;;;;;;;51.17;21.67;;;5.60;99.90;;;;;;5053737;28;20214;-70
2022/03/22 05:17:21;;;;;;;47.80;21.20;;;5.60;99.90;;;;;;5053870;28;20642;-71
2022/03/22 05:19:50;;;;;;;47.47;20.87;;;5.50;99.90;;;;;;5053477;28;20635;-71
2022/03/22 05:22:19;;;;;;;46.90;20.87;;;5.40;99.90;;;;;;5053258;28;20181;-71
2022/03/22 05:24:46;;;;;;;45.40;20.00;;;5.60;99.90;;;;;;5053351;28;20182;-71
2022/03/22 05:27:15;;;;;;;50.63;21.63;;;5.60;99.90;;;;;;5053267;28;20186;-71
2022/03/22 05:29:41;;;;;;;47.63;20.60;;;5.60;99.90;;;;;;5053241;28;20233;-70
2022/03/22 05:32:08;;;;;;;48.13;20.20;;;5.50;99.90;;;;;;5053006;28;20174;-70
2022/03/22 05:34:33;;;;;;;50.20;20.40;;;5.60;99.90;;;;;;5052607;28;20683;-70
2022/03/22 05:36:59;;;;;;;48.77;19.53;;;5.70;99.90;;;;;;5053025;28;20265;-71
2022/03/22 05:39:25;;;;;;;45.53;19.77;;;5.60;99.90;;;;;;5053030;28;20293;-71
2022/03/22 05:41:51;;;;;;;50.20;19.97;;;5.70;99.90;;;;;;5051624;28;20182;-70
2022/03/22 05:44:17;;;;;;;45.57;19.33;;;5.40;99.90;;;;;;5052887;28;20598;-70
2022/03/22 05:46:43;;;;;;;47.23;20.30;;;5.20;99.90;;;;;;5052613;28;20189;-70
2022/03/22 05:49:09;;;;;;;45.77;19.93;;;5.20;99.90;;;;;;5052856;28;20298;-70
2022/03/22 05:51:36;;;;;;;43.30;19.83;;;5.40;99.90;;;;;;5052539;28;20635;-71
2022/03/22 05:54:02;;;;;;;46.10;20.10;;;5.50;99.90;;;;;;5052616;28;20209;-71
2022/03/22 05:56:29;;;;;;;47.47;19.50;;;5.60;99.90;;;;;;5052716;28;20169;-71
2022/03/22 05:58:58;;;;;;;60.43;21.43;;;5.50;99.90;;;;;;5052163;28;20199;-71
2022/03/22 06:01:24;;;;;;;46.03;19.60;;;5.40;99.90;;;;;;5052531;28;20173;-71
2022/03/22 06:03:50;;;;;;;51.07;21.50;;;5.50;99.90;;;;;;5052714;28;20180;-71
2022/03/22 06:06:16;;;;;;;48.67;20.13;;;5.70;99.90;;;;;;5052401;28;20182;-71
2022/03/22 06:08:42;;;;;;;46.70;19.47;;;5.90;99.90;;;;;;5052515;28;20202;-71
2022/03/22 06:11:08;;;;;;;46.20;21.37;;;5.80;99.90;;;;;;5052345;28;20757;-71
2022/03/22 06:13:33;;;;;;;45.23;19.20;;;5.90;99.90;;;;;;5052284;28;20205;-72
2022/03/22 06:15:59;;;;;;;48.10;19.33;;;5.90;99.90;;;;;;5052058;28;20180;-71
2022/03/22 06:18:26;;;;;;;37.43;19.00;;;6.10;99.90;;;;;;5052290;28;20287;-72
2022/03/22 06:20:51;;;;;;;40.07;18.33;;;6.20;99.90;;;;;;5052235;28;20237;-72
2022/03/22 06:23:19;;;;;;;44.10;19.30;;;6.10;99.90;;;;;;5052133;28;20179;-72
2022/03/22 06:25:45;;;;;;;46.03;19.20;;;6.30;99.90;;;;;;5052136;28;20180;-72
2022/03/22 06:28:13;;;;;;;35.87;18.10;;;6.70;99.90;;;;;;5052137;28;20184;-72
2022/03/22 06:30:38;;;;;;;42.10;19.37;;;6.90;99.90;;;;;;5052161;28;20320;-72
2022/03/22 06:33:13;;;;;;;44.00;18.63;;;7.20;99.90;;;;;;5051632;28;20774;-72
2022/03/22 06:35:40;;;;;;;39.77;18.67;;;7.30;99.90;;;;;;5052065;28;20228;-72
2022/03/22 06:38:06;;;;;;;41.17;18.40;;;7.20;99.90;;;;;;5051810;28;20222;-71
2022/03/22 06:40:38;;;;;;;38.13;18.23;;;7.40;99.90;;;;;;5051939;28;20174;-72
2022/03/22 06:43:06;;;;;;;47.37;19.30;;;7.60;99.90;;;;;;5051674;28;20177;-72
2022/03/22 06:45:32;;;;;;;37.73;18.23;;;7.70;99.90;;;;;;5051766;28;20199;-72
2022/03/22 06:47:57;;;;;;;38.60;18.33;;;7.80;99.90;;;;;;5051449;28;20187;-72
2022/03/22 06:50:26;;;;;;;33.63;17.67;;;7.80;99.90;;;;;;5051858;28;20185;-72
2022/03/22 06:52:53;;;;;;;38.90;18.33;;;7.90;99.90;;;;;;5051149;28;20227;-72
2022/03/22 06:55:22;;;;;;;36.80;18.03;;;8.00;99.90;;;;;;5051542;28;20591;-72
2022/03/22 06:57:51;;;;;;;44.60;17.53;;;8.40;99.90;;;;;;5051349;28;20178;-76
2022/03/22 07:00:18;;;;;;;41.17;18.57;;;8.50;99.90;;;;;;5051413;28;20200;-76
2022/03/22 07:02:44;;;;;;;36.17;18.57;;;9.10;99.90;;;;;;5051427;28;20212;-75
2022/03/22 07:05:11;;;;;;;39.73;18.77;;;9.60;99.90;;;;;;5051675;28;20419;-75
2022/03/22 07:07:38;;;;;;;36.30;18.03;;;9.80;99.90;;;;;;5051482;28;20185;-74
2022/03/22 07:10:06;;;;;;;41.53;17.70;;;9.80;99.90;;;;;;5051267;28;20198;-76
2022/03/22 07:12:32;;;;;;;34.93;18.33;;;10.20;99.90;;;;;;5050849;28;20184;-76
2022/03/22 07:14:57;;;;;;;37.57;19.00;;;10.30;99.90;;;;;;5051408;28;20211;-74
2022/03/22 07:17:23;;;;;;;40.13;19.57;;;10.90;99.50;;;;;;5051670;28;20797;-75
2022/03/22 07:19:49;;;;;;;45.30;18.67;;;11.60;97.80;;;;;;5051417;28;20195;-75
2022/03/22 07:22:15;;;;;;;40.07;17.73;;;12.40;94.60;;;;;;5051152;28;20178;-76
2022/03/22 07:24:40;;;;;;;44.50;17.47;;;12.90;92.50;;;;;;5051138;28;20556;-75
2022/03/22 07:27:06;;;;;;;37.43;17.80;;;13.70;90.10;;;;;;5051147;28;20191;-76
2022/03/22 07:29:32;;;;;;;30.37;16.93;;;13.90;85.60;;;;;;5050916;28;20270;-75
2022/03/22 07:31:59;;;;;;;34.33;18.10;;;13.50;89.20;;;;;;5050608;28;20188;-75
2022/03/22 07:34:26;;;;;;;33.40;18.13;;;14.10;83.00;;;;;;5050912;28;20208;-75
2022/03/22 07:36:52;;;;;;;35.27;19.10;;;14.90;81.90;;;;;;5051016;28;20708;-72
2022/03/22 07:39:20;;;;;;;33.97;18.63;;;14.60;80.00;;;;;;5050879;28;20211;-73
2022/03/22 07:41:46;;;;;;;38.88;18.88;;;15.00;76.40;;;;;;5050986;28;20179;-72
2022/03/22 07:44:12;;;;;;;32.30;18.15;;;14.70;77.00;;;;;;5050081;28;20236;-73
2022/03/22 07:46:42;;;;;;;30.08;18.23;;;15.30;78.20;;;;;;5050668;28;20664;-74
2022/03/22 07:54:36;;;;;;;33.22;17.02;;;14.10;80.50;;;;;;5051902;28;20200;-75
2022/03/22 07:57:02;;;;;;;30.70;17.52;;;15.20;76.90;;;;;;5050201;28;20174;-75
2022/03/22 07:59:28;;;;;;;33.67;17.83;;;15.90;73.20;;;;;;5050607;28;20593;-74
2022/03/22 08:01:54;;;;;;;37.40;17.88;;;15.70;75.20;;;;;;5050470;28;20208;-75
2022/03/22 08:04:20;;;;;;;30.08;17.40;;;16.40;72.10;;;;;;5050327;28;20169;-72
2022/03/22 08:06:45;;;;;;;25.70;16.17;;;16.70;70.80;;;;;;5050090;28;20181;-72
2022/03/22 08:09:12;;;;;;;28.02;16.85;;;16.90;70.10;;;;;;5050394;28;20196;-73
2022/03/22 08:11:39;;;;;;;30.33;17.00;;;17.70;70.80;;;;;;5050313;28;20227;-72
2022/03/22 08:14:05;;;;;;;30.50;16.98;;;16.00;69.20;;;;;;5050422;28;20205;-72
2022/03/22 08:16:31;;;;;;;28.05;16.65;;;15.00;73.60;;;;;;5050587;28;20169;-73
2022/03/22 08:18:57;;;;;;;24.85;16.13;;;16.60;71.20;;;;;;5050451;28;20196;-72
2022/03/22 08:21:23;;;;;;;30.35;15.70;;;16.40;68.40;;;;;;5050232;28;20172;-72
2022/03/22 08:23:49;;;;;;;31.45;16.35;;;15.20;71.00;;;;;;5050352;28;20578;-72
2022/03/22 08:26:14;;;;;;;27.88;16.23;;;14.70;72.80;;;;;;5050485;28;20264;-72
2022/03/22 08:28:42;;;;;;;28.73;15.32;;;14.50;73.20;;;;;;5051665;28;20203;-74
2022/03/22 08:31:11;;;;;;;28.77;15.90;;;14.50;73.30;;;;;;5050230;28;20176;-72
2022/03/22 08:33:36;;;;;;;27.95;15.68;;;14.60;74.10;;;;;;5050169;28;20197;-72
2022/03/22 08:36:02;;;;;;;27.60;15.23;;;15.20;73.40;;;;;;5050398;28;20181;-72
2022/03/22 08:38:28;;;;;;;25.63;14.68;;;15.10;71.40;;;;;;5050110;28;20189;-72
2022/03/22 08:40:56;;;;;;;31.83;15.40;;;15.00;71.10;;;;;;5050241;28;20177;-72
2022/03/22 08:43:25;;;;;;;23.52;14.23;;;15.70;69.50;;;;;;5049946;28;20181;-72
2022/03/22 08:45:51;;;;;;;27.63;15.00;;;16.30;66.10;;;;;;5050228;28;20203;-72
2022/03/22 08:48:18;;;;;;;26.67;14.85;;;16.80;68.00;;;;;;5049274;28;20761;-72
2022/03/22 08:50:45;;;;;;;26.08;14.25;;;17.20;64.40;;;;;;5047130;28;20174;-72
2022/03/22 08:53:12;;;;;;;27.45;14.60;;;17.70;63.10;;;;;;5049154;28;20641;-72
2022/03/22 08:55:39;;;;;;;26.73;13.93;;;16.70;66.20;;;;;;5049346;28;20174;-72
2022/03/22 08:58:06;;;;;;;26.95;14.20;;;16.70;65.90;;;;;;5049236;28;20241;-72
2022/03/22 09:00:33;;;;;;;25.40;14.43;;;17.40;66.00;;;;;;5049605;28;20261;-72
2022/03/22 09:03:00;;;;;;;25.35;13.68;;;17.50;64.30;;;;;;5049951;28;20168;-72
2022/03/22 09:08:09;;;;;;;26.20;15.35;;;18.00;64.60;;;;;;5051586;28;20223;-72
2022/03/22 09:10:36;;;;;;;23.55;14.18;;;17.90;62.80;;;;;;5050627;28;20181;-72
2022/03/22 09:13:06;;;;;;;27.13;13.98;;;17.40;64.50;;;;;;5050046;28;20177;-72
2022/03/22 09:15:36;;;;;;;24.83;13.98;;;16.90;64.60;;;;;;5049975;28;20240;-72
2022/03/22 09:18:02;;;;;;;27.08;14.07;;;16.50;64.40;;;;;;5053200;28;20196;-72
2022/03/22 09:20:32;;;;;;;24.75;13.75;;;16.60;65.50;;;;;;5053910;28;20173;-71
2022/03/22 09:23:00;;;;;;;21.40;13.10;;;16.80;63.40;;;;;;5054623;28;20525;-72
2022/03/22 09:25:27;;;;;;;21.52;12.98;;;16.90;63.50;;;;;;5053301;28;20231;-72
2022/03/22 09:27:54;;;;;;;21.50;14.00;;;17.30;63.30;;;;;;5052817;28;20234;-73
2022/03/22 09:30:20;;;;;;;29.05;13.20;;;17.10;64.30;;;;;;5053431;28;20228;-73
2022/03/22 09:32:46;;;;;;;29.60;12.75;;;17.10;64.30;;;;;;5053189;28;20185;-73
2022/03/22 09:35:19;;;;;;;21.30;12.43;;;17.30;62.70;;;;;;5053383;28;20198;-73
2022/03/22 09:37:46;;;;;;;20.65;12.70;;;17.50;62.10;;;;;;5053411;28;20181;-73
2022/03/22 09:40:13;;;;;;;22.23;13.10;;;18.40;61.80;;;;;;5053246;28;20189;-73
2022/03/22 09:42:43;;;;;;;19.42;13.00;;;18.30;60.70;;;;;;5053111;28;20201;-73
2022/03/22 09:45:10;;;;;;;23.65;12.43;;;18.40;59.30;;;;;;5052938;28;20215;-73
2022/03/22 09:47:37;;;;;;;23.13;12.45;;;18.20;59.80;;;;;;5052985;28;20196;-74
2022/03/22 09:50:04;;;;;;;22.65;13.05;;;18.00;58.20;;;;;;5053153;28;20545;-74
2022/03/22 09:52:30;;;;;;;21.05;12.52;;;18.00;59.20;;;;;;5053140;28;20177;-74
2022/03/22 09:54:55;;;;;;;23.13;12.48;;;18.50;58.10;;;;;;5053499;28;20204;-76
2022/03/22 09:57:21;;;;;;;19.10;12.35;;;18.50;57.40;;;;;;5053302;28;20657;-73
2022/03/22 09:59:47;;;;;;;21.55;12.88;;;17.80;58.20;;;;;;5053046;28;20731;-76
2022/03/22 10:02:12;;;;;;;25.85;13.27;;;18.40;59.20;;;;;;5052822;28;20169;-74
2022/03/22 10:04:43;;;;;;;23.45;12.80;;;18.10;58.00;;;;;;5052826;28;20199;-73
2022/03/22 10:07:20;;;;;;;23.70;12.82;;;18.70;58.30;;;;;;5052912;28;20169;-73
2022/03/22 10:10:02;;;;;;;21.45;13.02;;;18.30;59.30;;;;;;5052669;28;20201;-73
2022/03/22 10:12:35;;;;;;;23.48;13.70;;;18.50;58.70;;;;;;5052655;28;20649;-73
2022/03/22 10:15:15;;;;;;;23.67;12.80;;;18.50;57.80;;;;;;5052748;28;20259;-73
2022/03/22 10:17:46;;;;;;;23.75;12.35;;;19.20;58.20;;;;;;5053020;28;20601;-73
2022/03/22 10:20:23;;;;;;;25.00;12.95;;;18.80;59.10;;;;;;5052578;28;20239;-73
2022/03/22 10:22:58;;;;;;;21.80;12.98;;;19.10;58.80;;;;;;5052472;28;20173;-73
2022/03/22 10:25:24;;;;;;;24.13;13.38;;;19.30;58.80;;;;;;5052579;28;20195;-74
2022/03/22 10:27:58;;;;;;;21.30;13.07;;;19.00;56.80;;;;;;5051541;28;20538;-73
2022/03/22 10:30:24;;;;;;;22.95;12.32;;;18.90;57.30;;;;;;5052491;28;20205;-73
2022/03/22 10:32:53;;;;;;;19.15;12.30;;;19.20;56.00;;;;;;5051948;28;20657;-73
2022/03/22 10:35:26;;;;;;;19.50;12.95;;;19.10;57.90;;;;;;5052291;28;20255;-73
2022/03/22 10:37:56;;;;;;;22.30;12.70;;;19.20;56.00;;;;;;5052221;28;20177;-73
2022/03/22 10:40:34;;;;;;;24.00;13.02;;;19.20;57.20;;;;;;5052261;28;20645;-73
2022/03/22 10:43:09;;;;;;;21.40;12.95;;;19.80;58.90;;;;;;5052397;28;20180;-73
2022/03/22 10:46:01;;;;;;;27.40;12.90;;;19.90;57.10;;;;;;5066437;23;20311;-77
2022/03/22 10:48:33;;;;;;;23.35;12.40;;;19.80;55.50;;;;;;5048974;28;20251;-77
2022/03/22 10:51:00;;;;;;;22.67;12.52;;;20.10;57.00;;;;;;5052100;28;20581;-78
2022/03/22 10:53:27;;;;;;;23.52;12.65;;;20.10;56.80;;;;;;5052098;28;20169;-76
2022/03/22 10:55:54;;;;;;;22.27;12.65;;;20.10;55.50;;;;;;5052161;28;20252;-76
2022/03/22 10:58:24;;;;;;;21.55;12.60;;;19.80;56.90;;;;;;5052866;28;20542;-77
2022/03/22 11:00:49;;;;;;;21.48;13.63;;;19.70;55.00;;;;;;5051810;28;20169;-76
2022/03/22 11:03:19;;;;;;;23.88;13.63;;;19.50;56.20;;;;;;5051712;28;20170;-78
2022/03/22 11:05:53;;;;;;;31.80;12.90;;;19.70;55.00;;;;;;5052034;28;20223;-76
2022/03/22 11:08:25;;;;;;;26.10;13.48;;;19.70;56.30;;;;;;5051692;28;20201;-76
2022/03/22 11:10:53;;;;;;;24.67;13.40;;;19.80;56.70;;;;;;5051723;28;20205;-78
2022/03/22 11:13:19;;;;;;;26.70;13.30;;;19.90;54.70;;;;;;5051506;28;20192;-79
2022/03/22 11:15:47;;;;;;;25.13;13.82;;;20.70;57.00;;;;;;5052850;28;20642;-79
2022/03/22 11:18:16;;;;;;;25.05;14.00;;;20.50;56.00;;;;;;5051632;28;20170;-78
2022/03/22 11:20:53;;;;;;;27.77;14.57;;;20.30;55.70;;;;;;5051529;28;20174;-76
2022/03/22 11:23:20;;;;;;;25.73;13.02;;;20.60;55.30;;;;;;5051573;28;20235;-78
2022/03/22 11:25:46;;;;;;;30.15;14.57;;;20.50;53.40;;;;;;5055143;28;20219;-79
2022/03/22 11:28:16;;;;;;;29.42;14.88;;;20.40;55.20;;;;;;5052115;28;20173;-77
2022/03/22 11:30:42;;;;;;;29.30;14.52;;;20.20;54.20;;;;;;5052119;28;20169;-77
2022/03/22 11:35:59;;;;;;;33.83;13.82;;;20.00;55.80;;;;;;5053056;28;20181;-77
2022/03/22 11:38:55;;;;;;;30.38;14.98;;;20.10;57.10;;;;;;5051346;28;20665;-76
2022/03/22 11:44:36;;;;;;;36.92;15.23;;;20.60;56.60;;;;;;5052471;28;20679;-76
2022/03/22 11:47:20;;;;;;;33.50;15.02;;;20.50;55.60;;;;;;5050983;28;20185;-78
2022/03/22 11:49:52;;;;;;;30.70;13.93;;;20.50;57.90;;;;;;5051211;28;20196;-79
2022/03/22 11:52:40;;;;;;;28.13;15.00;;;20.60;58.10;;;;;;5051407;28;20178;-78
2022/03/22 11:55:18;;;;;;;28.90;14.68;;;20.50;56.70;;;;;;5051195;28;20259;-80
2022/03/22 11:57:58;;;;;;;26.05;14.48;;;21.20;54.50;;;;;;5051523;28;20545;-77
2022/03/22 12:00:44;;;;;;;30.75;15.60;;;21.60;54.40;;;;;;5050960;28;20176;-79
2022/03/22 12:03:12;;;;;;;31.75;15.43;;;21.80;52.90;;;;;;5050955;28;20185;-77
2022/03/22 12:05:38;;;;;;;33.83;16.13;;;21.40;54.30;;;;;;5051107;28;20543;-78
2022/03/22 12:08:09;;;;;;;36.35;16.40;;;20.40;56.10;;;;;;5051142;28;20169;-78
2022/03/22 12:10:35;;;;;;;29.40;15.20;;;20.30;56.10;;;;;;5050428;28;20260;-79
2022/03/22 12:13:02;;;;;;;30.05;15.70;;;19.90;57.60;;;;;;5050098;28;20312;-77
2022/03/22 12:15:27;;;;;;;33.22;16.60;;;20.10;58.20;;;;;;5049924;28;20661;-77
2022/03/22 12:17:53;;;;;;;35.10;15.13;;;19.90;55.20;;;;;;5050697;28;20266;-78
2022/03/22 12:20:22;;;;;;;31.48;14.93;;;20.00;55.60;;;;;;5050793;28;20196;-78
2022/03/22 12:22:55;;;;;;;35.30;16.42;;;19.70;56.50;;;;;;5050957;28;20176;-77
2022/03/22 12:25:23;;;;;;;36.47;16.08;;;19.60;57.30;;;;;;5050650;28;20177;-77
2022/03/22 12:27:53;;;;;;;30.35;15.73;;;20.00;55.90;;;;;;5050969;28;20203;-76
2022/03/22 12:30:20;;;;;;;38.30;15.63;;;20.30;56.00;;;;;;5050749;28;20196;-77
2022/03/22 12:32:50;;;;;;;29.08;15.30;;;20.30;56.30;;;;;;5050650;28;20281;-77
2022/03/22 12:35:16;;;;;;;32.58;15.00;;;20.30;55.20;;;;;;5051833;28;20197;-78
2022/03/22 12:37:42;;;;;;;30.20;15.60;;;20.50;57.20;;;;;;5051375;28;20192;-77
2022/03/22 12:40:08;;;;;;;33.17;15.32;;;19.60;55.70;;;;;;5050444;28;20569;-77
2022/03/22 12:42:33;;;;;;;35.85;16.13;;;19.90;57.50;;;;;;5049761;28;20176;-78
2022/03/22 12:44:59;;;;;;;31.10;14.93;;;20.00;57.40;;;;;;5049175;28;20219;-75
2022/03/22 12:47:25;;;;;;;37.05;15.18;;;20.20;55.80;;;;;;5049508;28;20173;-78
2022/03/22 12:49:51;;;;;;;35.90;14.80;;;20.00;56.90;;;;;;5049980;28;20589;-78
2022/03/22 12:52:17;;;;;;;29.40;14.57;;;19.80;57.10;;;;;;5051914;28;20667;-78
2022/03/22 12:54:44;;;;;;;34.60;14.00;;;19.80;55.90;;;;;;5053436;28;20205;-78
2022/03/22 12:57:13;;;;;;;35.60;15.32;;;19.70;56.60;;;;;;5054031;28;20170;-77
2022/03/22 12:59:40;;;;;;;27.52;13.13;;;19.70;56.60;;;;;;5053925;28;20252;-79
2022/03/22 13:02:07;;;;;;;23.67;12.25;;;19.60;57.30;;;;;;5053499;28;20659;-78
2022/03/22 13:04:48;;;;;;;32.33;13.93;;;19.60;56.40;;;;;;5054274;28;20495;-77
2022/03/22 13:07:24;;;;;;;25.27;13.40;;;19.60;56.10;;;;;;5053292;28;20165;-77
2022/03/22 13:12:37;;;;;;;31.20;13.03;;;19.30;56.50;;;;;;5054793;28;20204;-77